PWSweather.com
Personal Weather Stations
Station Observations
TARRYHILL
Tarrytown, NY 10591

Tarrytown, NY 10591

Lat: 41.05185, Lon: -73.85296

Elevation: 341

Station Type: Davis Vantage Vue

Latest ConditionsUpdated 8:00:01 PM EDT Sunday, Mar 26, 2017
Currently Today's Max Today's Min Today's Average
Temperature 37.5°F3.1°C 39.0°F3.9°C 35.0°F1.7°C 37.7°F3.2°C
Dew Point 34.8°F1.6°C 36.9°F2.7°C 32.1°F0.1°C 33.7°F0.9°C
Winds 1.2 mph NW1.9 kmh NW 3.5 mph ENE5.6 kmh ENE - 0.7 mph 1.1 kmh
Wind Gusts 4.6 mph7.4 kmh 5.8 mph9.3 kmh - -
Humidity 90% 93% 78% 86%
Pressure 30.38 in1028.8 mb 30.50 in1032.8 mb 30.38 in1028.8 mb -
Precipitation - 0.16 in4.1 mm - -
Hour Temp Dew Point Humidity Winds Wind Gusts Pressure Precip Precip Rate Daily Precip Total
08:00 PM 37.5°F3.1°C 34.8°F1.6°C 90% 1.2 mph NW1.9 kmh NW 4.6 mph7.4 kmh 30.38 in1028.8 mb - 0.00 in0.0 mm 0.16 in4.1 mm
07:00 PM 38.1°F3.4°C 34.9°F1.6°C 88% 1.2 mph ENE1.9 kmh ENE 2.3 mph3.7 kmh 30.40 in1029.5 mb - 0.00 in0.0 mm 0.16 in4.1 mm
06:00 PM 38.7°F3.7°C 34.3°F1.3°C 84% 2.3 mph ENE3.7 kmh ENE 5.8 mph9.3 kmh 30.41 in1029.8 mb - 0.00 in0.0 mm 0.16 in4.1 mm
05:00 PM 39.0°F3.9°C 33.7°F0.9°C 81% Calm Calm 1.2 mph1.9 kmh 30.43 in1030.5 mb - 0.00 in0.0 mm 0.16 in4.1 mm
04:00 PM 38.9°F3.8°C 34.2°F1.2°C 83% 1.2 mph NE1.9 kmh NE 2.3 mph3.7 kmh 30.43 in1030.5 mb - 0.00 in0.0 mm 0.16 in4.1 mm
03:00 PM 37.6°F3.1°C 33.8°F1.0°C 86% Calm Calm -- 30.45 in1031.2 mb - 0.01 in0.3 mm 0.16 in4.1 mm
02:00 PM 38.3°F3.5°C 32.3°F0.2°C 79% 3.5 mph ENE5.6 kmh ENE 4.6 mph7.4 kmh 30.47 in1031.8 mb - 0.00 in0.0 mm 0.15 in3.8 mm
01:00 PM 38.4°F3.6°C 32.1°F0.1°C 78% 1.2 mph W1.9 kmh W 1.2 mph1.9 kmh 30.48 in1032.2 mb - 0.00 in0.0 mm 0.15 in3.8 mm
12:00 PM 38.7°F3.7°C 32.4°F0.2°C 78% 1.2 mph NE1.9 kmh NE 4.6 mph7.4 kmh 30.50 in1032.8 mb - 0.00 in0.0 mm 0.15 in3.8 mm
11:00 AM 38.1°F3.4°C 32.8°F0.4°C 81% Calm Calm 3.5 mph5.6 kmh 30.50 in1032.8 mb - 0.00 in0.0 mm 0.15 in3.8 mm
10:00 AM 37.3°F2.9°C 33.5°F0.8°C 86% Calm Calm 1.2 mph1.9 kmh 30.49 in1032.5 mb - 0.00 in0.0 mm 0.15 in3.8 mm
09:00 AM 36.1°F2.3°C 33.1°F0.6°C 89% Calm Calm 2.3 mph3.7 kmh 30.48 in1032.2 mb - 0.00 in0.0 mm 0.15 in3.8 mm
08:00 AM 35.4°F1.9°C 33.0°F0.6°C 91% Calm Calm 3.5 mph5.6 kmh 30.46 in1031.5 mb - 0.00 in0.0 mm 0.15 in3.8 mm
07:00 AM 35.0°F1.7°C 32.9°F0.5°C 92% Calm Calm -- 30.45 in1031.2 mb - 0.14 in3.6 mm 0.15 in3.8 mm
06:00 AM 36.3°F2.4°C 32.8°F0.4°C 87% Calm Calm 1.2 mph1.9 kmh 30.45 in1031.2 mb - 0.01 in0.3 mm 0.01 in0.3 mm
05:00 AM 37.0°F2.8°C 32.6°F0.3°C 84% Calm Calm 1.2 mph1.9 kmh 30.44 in1030.8 mb - 0.00 in0.0 mm 0.00 in0.0 mm
04:00 AM 37.9°F3.3°C 33.5°F0.8°C 84% Calm Calm 2.3 mph3.7 kmh 30.44 in1030.8 mb - 0.00 in0.0 mm 0.00 in0.0 mm
03:00 AM 38.3°F3.5°C 34.5°F1.4°C 86% 1.2 mph NNE1.9 kmh NNE 4.6 mph7.4 kmh 30.44 in1030.8 mb - 0.00 in0.0 mm 0.00 in0.0 mm
01:00 AM 37.9°F3.3°C 36.1°F2.3°C 93% Calm Calm -- 30.42 in1030.1 mb - 0.00 in0.0 mm 0.00 in0.0 mm
12:00 AM 38.7°F3.7°C 36.9°F2.7°C 93% 1.2 mph WNW1.9 kmh WNW 3.5 mph5.6 kmh 30.41 in1029.8 mb - 0.00 in0.0 mm 0.00 in0.0 mm